Terminal Aerodrome Forecast
Issued by NWS Springfield, MO

Home | Current Version | Previous Version | Text Only | Print | Product List | Glossary On
Versions: 1 2 3 4 5 6 7 8 9 10 11 12 13 14 15 16
520
FTUS43 KSGF 051130
TAFSGF
TAF
KSGF 051130Z 0512/0612 20005KT P6SM OVC250
     FM051800 19008KT P6SM BKN250
     FM060000 17005KT P6SM BKN250=

USA.gov is the U.S. government's official web portal to all federal, state and local government web resources and services.